sensor_id;sensor_type;location;lat;lon;timestamp;pressure;altitude;pressure_sealevel;temperature
72405;BMP280;60395;52.020;113.548;2024-02-15T00:01:42;92724.81;;;-22.16
72405;BMP280;60395;52.020;113.548;2024-02-15T00:04:46;92718.50;;;-22.17
72405;BMP280;60395;52.020;113.548;2024-02-15T00:07:49;92723.22;;;-22.08
72405;BMP280;60395;52.020;113.548;2024-02-15T00:10:53;92723.00;;;-21.99
72405;BMP280;60395;52.020;113.548;2024-02-15T00:13:56;92716.22;;;-21.98
72405;BMP280;60395;52.020;113.548;2024-02-15T00:17:00;92719.13;;;-21.83
72405;BMP280;60395;52.020;113.548;2024-02-15T00:20:03;92709.63;;;-21.79
72405;BMP280;60395;52.020;113.548;2024-02-15T00:23:12;92716.28;;;-21.51
72405;BMP280;60395;52.020;113.548;2024-02-15T00:26:16;92715.25;;;-21.20
72405;BMP280;60395;52.020;113.548;2024-02-15T00:29:19;92709.50;;;-21.04
72405;BMP280;60395;52.020;113.548;2024-02-15T00:32:22;92699.66;;;-21.32
72405;BMP280;60395;52.020;113.548;2024-02-15T00:35:26;92692.75;;;-21.56
72405;BMP280;60395;52.020;113.548;2024-02-15T00:38:34;92685.28;;;-21.56
72405;BMP280;60395;52.020;113.548;2024-02-15T00:41:38;92693.75;;;-21.23
72405;BMP280;60395;52.020;113.548;2024-02-15T00:44:44;92702.47;;;-21.00
72405;BMP280;60395;52.020;113.548;2024-02-15T00:47:48;92704.47;;;-20.98
72405;BMP280;60395;52.020;113.548;2024-02-15T00:50:51;92692.22;;;-20.96
72405;BMP280;60395;52.020;113.548;2024-02-15T00:53:55;92690.94;;;-20.73
72405;BMP280;60395;52.020;113.548;2024-02-15T00:56:58;92691.88;;;-20.46
72405;BMP280;60395;52.020;113.548;2024-02-15T01:00:03;92697.47;;;-20.40
72405;BMP280;60395;52.020;113.548;2024-02-15T01:03:06;92694.38;;;-20.22
72405;BMP280;60395;52.020;113.548;2024-02-15T01:06:10;92681.84;;;-19.97
72405;BMP280;60395;52.020;113.548;2024-02-15T01:09:14;92678.09;;;-19.85
72405;BMP280;60395;52.020;113.548;2024-02-15T01:12:17;92673.09;;;-19.85
72405;BMP280;60395;52.020;113.548;2024-02-15T01:15:21;92663.31;;;-19.64
72405;BMP280;60395;52.020;113.548;2024-02-15T01:18:24;92653.59;;;-19.30
72405;BMP280;60395;52.020;113.548;2024-02-15T01:21:30;92652.63;;;-18.95
72405;BMP280;60395;52.020;113.548;2024-02-15T01:24:36;92648.94;;;-18.75
72405;BMP280;60395;52.020;113.548;2024-02-15T01:27:39;92653.88;;;-18.56
72405;BMP280;60395;52.020;113.548;2024-02-15T01:30:43;92648.50;;;-18.34
72405;BMP280;60395;52.020;113.548;2024-02-15T01:33:48;92634.69;;;-18.14
72405;BMP280;60395;52.020;113.548;2024-02-15T01:36:52;92629.94;;;-17.91
72405;BMP280;60395;52.020;113.548;2024-02-15T01:39:55;92625.78;;;-17.89
72405;BMP280;60395;52.020;113.548;2024-02-15T01:42:59;92616.03;;;-17.79
72405;BMP280;60395;52.020;113.548;2024-02-15T01:46:09;92604.25;;;-17.50
72405;BMP280;60395;52.020;113.548;2024-02-15T01:49:13;92589.03;;;-17.31
72405;BMP280;60395;52.020;113.548;2024-02-15T01:52:18;92589.69;;;-17.31
72405;BMP280;60395;52.020;113.548;2024-02-15T01:55:22;92579.44;;;-17.12
72405;BMP280;60395;52.020;113.548;2024-02-15T01:58:29;92566.88;;;-16.91
72405;BMP280;60395;52.020;113.548;2024-02-15T02:01:35;92559.22;;;-16.86
72405;BMP280;60395;52.020;113.548;2024-02-15T02:04:39;92542.47;;;-16.83
72405;BMP280;60395;52.020;113.548;2024-02-15T02:07:43;92532.13;;;-16.80
72405;BMP280;60395;52.020;113.548;2024-02-15T02:10:46;92536.28;;;-16.82
72405;BMP280;60395;52.020;113.548;2024-02-15T02:13:50;92524.72;;;-16.85
72405;BMP280;60395;52.020;113.548;2024-02-15T02:16:54;92525.63;;;-16.75
72405;BMP280;60395;52.020;113.548;2024-02-15T02:19:58;92526.16;;;-16.61
72405;BMP280;60395;52.020;113.548;2024-02-15T02:23:13;92521.16;;;-16.54
72405;BMP280;60395;52.020;113.548;2024-02-15T02:26:16;92507.06;;;-16.64
72405;BMP280;60395;52.020;113.548;2024-02-15T02:29:20;92501.88;;;-16.66
72405;BMP280;60395;52.020;113.548;2024-02-15T02:32:23;92500.34;;;-16.69
72405;BMP280;60395;52.020;113.548;2024-02-15T02:35:29;92489.47;;;-16.57
72405;BMP280;60395;52.020;113.548;2024-02-15T02:38:36;92482.50;;;-16.43
72405;BMP280;60395;52.020;113.548;2024-02-15T02:41:41;92474.31;;;-16.36
72405;BMP280;60395;52.020;113.548;2024-02-15T02:44:44;92470.00;;;-16.20
72405;BMP280;60395;52.020;113.548;2024-02-15T02:47:53;92461.97;;;-15.96
72405;BMP280;60395;52.020;113.548;2024-02-15T02:50:57;92448.91;;;-15.87
72405;BMP280;60395;52.020;113.548;2024-02-15T02:54:01;92444.53;;;-15.79
72405;BMP280;60395;52.020;113.548;2024-02-15T02:57:08;92428.91;;;-15.62
72405;BMP280;60395;52.020;113.548;2024-02-15T03:00:13;92422.66;;;-15.38
72405;BMP280;60395;52.020;113.548;2024-02-15T03:03:18;92421.75;;;-15.18
72405;BMP280;60395;52.020;113.548;2024-02-15T03:06:28;92410.03;;;-14.83
72405;BMP280;60395;52.020;113.548;2024-02-15T03:09:31;92405.41;;;-14.36
72405;BMP280;60395;52.020;113.548;2024-02-15T03:12:37;92398.44;;;-14.03
72405;BMP280;60395;52.020;113.548;2024-02-15T03:15:40;92398.56;;;-13.77
72405;BMP280;60395;52.020;113.548;2024-02-15T03:18:44;92398.19;;;-13.56
72405;BMP280;60395;52.020;113.548;2024-02-15T03:21:48;92402.63;;;-13.47
72405;BMP280;60395;52.020;113.548;2024-02-15T03:24:51;92402.13;;;-13.45
72405;BMP280;60395;52.020;113.548;2024-02-15T03:27:59;92382.28;;;-13.31
72405;BMP280;60395;52.020;113.548;2024-02-15T03:31:06;92386.69;;;-13.05
72405;BMP280;60395;52.020;113.548;2024-02-15T03:34:09;92382.69;;;-12.81
72405;BMP280;60395;52.020;113.548;2024-02-15T03:37:14;92372.84;;;-12.77
72405;BMP280;60395;52.020;113.548;2024-02-15T03:40:18;92366.28;;;-12.80
72405;BMP280;60395;52.020;113.548;2024-02-15T03:43:22;92369.75;;;-12.85
72405;BMP280;60395;52.020;113.548;2024-02-15T03:46:26;92357.78;;;-12.85
72405;BMP280;60395;52.020;113.548;2024-02-15T03:49:30;92349.34;;;-12.60
72405;BMP280;60395;52.020;113.548;2024-02-15T03:52:35;92331.16;;;-12.39
72405;BMP280;60395;52.020;113.548;2024-02-15T03:55:38;92314.94;;;-12.36
72405;BMP280;60395;52.020;113.548;2024-02-15T03:58:42;92297.25;;;-12.17
72405;BMP280;60395;52.020;113.548;2024-02-15T04:01:46;92290.84;;;-11.99
72405;BMP280;60395;52.020;113.548;2024-02-15T04:04:50;92276.59;;;-12.04
72405;BMP280;60395;52.020;113.548;2024-02-15T04:07:55;92272.47;;;-12.19
72405;BMP280;60395;52.020;113.548;2024-02-15T04:10:59;92256.38;;;-12.23
72405;BMP280;60395;52.020;113.548;2024-02-15T04:14:03;92245.56;;;-12.24
72405;BMP280;60395;52.020;113.548;2024-02-15T04:17:10;92222.25;;;-12.13
72405;BMP280;60395;52.020;113.548;2024-02-15T04:20:13;92217.84;;;-12.02
72405;BMP280;60395;52.020;113.548;2024-02-15T04:23:18;92202.38;;;-11.97
72405;BMP280;60395;52.020;113.548;2024-02-15T04:26:22;92192.53;;;-11.93
72405;BMP280;60395;52.020;113.548;2024-02-15T04:29:29;92186.81;;;-11.93
72405;BMP280;60395;52.020;113.548;2024-02-15T04:32:33;92178.94;;;-11.88
72405;BMP280;60395;52.020;113.548;2024-02-15T04:35:37;92162.78;;;-11.83
72405;BMP280;60395;52.020;113.548;2024-02-15T04:38:40;92154.78;;;-11.79
72405;BMP280;60395;52.020;113.548;2024-02-15T04:41:44;92147.78;;;-11.59
72405;BMP280;60395;52.020;113.548;2024-02-15T04:44:49;92144.38;;;-11.43
72405;BMP280;60395;52.020;113.548;2024-02-15T04:47:56;92132.75;;;-11.36
72405;BMP280;60395;52.020;113.548;2024-02-15T04:51:04;92134.84;;;-11.32
72405;BMP280;60395;52.020;113.548;2024-02-15T04:54:08;92127.44;;;-11.40
72405;BMP280;60395;52.020;113.548;2024-02-15T04:57:16;92126.44;;;-11.56
72405;BMP280;60395;52.020;113.548;2024-02-15T05:00:22;92121.09;;;-11.82
72405;BMP280;60395;52.020;113.548;2024-02-15T05:03:26;92125.34;;;-11.84
72405;BMP280;60395;52.020;113.548;2024-02-15T05:06:29;92116.66;;;-11.71
72405;BMP280;60395;52.020;113.548;2024-02-15T05:09:35;92111.69;;;-11.69
72405;BMP280;60395;52.020;113.548;2024-02-15T05:12:38;92109.38;;;-11.56
72405;BMP280;60395;52.020;113.548;2024-02-15T05:15:51;92103.00;;;-11.35
72405;BMP280;60395;52.020;113.548;2024-02-15T05:18:54;92094.41;;;-11.21
72405;BMP280;60395;52.020;113.548;2024-02-15T05:21:57;92083.94;;;-11.15
72405;BMP280;60395;52.020;113.548;2024-02-15T05:25:01;92066.19;;;-11.15
72405;BMP280;60395;52.020;113.548;2024-02-15T05:28:08;92058.72;;;-11.13
72405;BMP280;60395;52.020;113.548;2024-02-15T05:31:19;92049.91;;;-11.12
72405;BMP280;60395;52.020;113.548;2024-02-15T05:34:28;92041.28;;;-11.19
72405;BMP280;60395;52.020;113.548;2024-02-15T05:37:32;92036.28;;;-11.28
72405;BMP280;60395;52.020;113.548;2024-02-15T05:40:37;92025.50;;;-11.29
72405;BMP280;60395;52.020;113.548;2024-02-15T05:43:41;92010.94;;;-11.28
72405;BMP280;60395;52.020;113.548;2024-02-15T05:46:45;92016.91;;;-11.24
72405;BMP280;60395;52.020;113.548;2024-02-15T05:49:48;92018.19;;;-11.01
72405;BMP280;60395;52.020;113.548;2024-02-15T05:52:52;92024.53;;;-10.79
72405;BMP280;60395;52.020;113.548;2024-02-15T05:55:58;92005.25;;;-10.61
72405;BMP280;60395;52.020;113.548;2024-02-15T05:59:01;91993.69;;;-10.64
72405;BMP280;60395;52.020;113.548;2024-02-15T06:02:13;91986.06;;;-10.64
72405;BMP280;60395;52.020;113.548;2024-02-15T06:05:16;91972.97;;;-10.60
72405;BMP280;60395;52.020;113.548;2024-02-15T06:08:20;91961.38;;;-10.63
72405;BMP280;60395;52.020;113.548;2024-02-15T06:11:26;91948.47;;;-10.79
72405;BMP280;60395;52.020;113.548;2024-02-15T06:14:29;91942.84;;;-10.78
72405;BMP280;60395;52.020;113.548;2024-02-15T06:17:33;91939.97;;;-10.60
72405;BMP280;60395;52.020;113.548;2024-02-15T06:20:36;91923.66;;;-10.46
72405;BMP280;60395;52.020;113.548;2024-02-15T06:23:42;91914.69;;;-10.35
72405;BMP280;60395;52.020;113.548;2024-02-15T06:26:48;91902.56;;;-10.37
72405;BMP280;60395;52.020;113.548;2024-02-15T06:29:54;91885.66;;;-10.32
72405;BMP280;60395;52.020;113.548;2024-02-15T06:33:17;91874.97;;;-10.30
72405;BMP280;60395;52.020;113.548;2024-02-15T06:36:51;91875.47;;;-10.20
72405;BMP280;60395;52.020;113.548;2024-02-15T06:40:13;91868.63;;;-10.18
72405;BMP280;60395;52.020;113.548;2024-02-15T06:43:17;91871.94;;;-10.15
72405;BMP280;60395;52.020;113.548;2024-02-15T06:46:21;91866.25;;;-10.16
72405;BMP280;60395;52.020;113.548;2024-02-15T06:49:25;91874.75;;;-10.23
72405;BMP280;60395;52.020;113.548;2024-02-15T06:52:31;91865.59;;;-10.28
72405;BMP280;60395;52.020;113.548;2024-02-15T06:55:37;91871.00;;;-10.22
72405;BMP280;60395;52.020;113.548;2024-02-15T06:58:42;91875.94;;;-10.24
72405;BMP280;60395;52.020;113.548;2024-02-15T07:01:46;91889.72;;;-10.15
72405;BMP280;60395;52.020;113.548;2024-02-15T07:04:49;91883.94;;;-10.04
72405;BMP280;60395;52.020;113.548;2024-02-15T07:07:55;91892.16;;;-9.92
72405;BMP280;60395;52.020;113.548;2024-02-15T07:10:59;91884.56;;;-9.92
72405;BMP280;60395;52.020;113.548;2024-02-15T07:14:05;91883.75;;;-9.83
72405;BMP280;60395;52.020;113.548;2024-02-15T07:17:10;91879.56;;;-9.78
72405;BMP280;60395;52.020;113.548;2024-02-15T07:20:14;91870.13;;;-9.76
72405;BMP280;60395;52.020;113.548;2024-02-15T07:23:20;91866.09;;;-9.81
72405;BMP280;60395;52.020;113.548;2024-02-15T07:26:26;91852.22;;;-9.91
72405;BMP280;60395;52.020;113.548;2024-02-15T07:29:30;91851.84;;;-10.00
72405;BMP280;60395;52.020;113.548;2024-02-15T07:32:37;91851.69;;;-10.02
72405;BMP280;60395;52.020;113.548;2024-02-15T07:35:44;91841.19;;;-9.96
72405;BMP280;60395;52.020;113.548;2024-02-15T07:38:52;91845.94;;;-9.90
72405;BMP280;60395;52.020;113.548;2024-02-15T07:41:59;91842.59;;;-9.93
72405;BMP280;60395;52.020;113.548;2024-02-15T07:45:07;91845.94;;;-9.90
72405;BMP280;60395;52.020;113.548;2024-02-15T07:48:15;91840.84;;;-9.90
72405;BMP280;60395;52.020;113.548;2024-02-15T07:51:21;91845.94;;;-9.90
72405;BMP280;60395;52.020;113.548;2024-02-15T07:54:28;91840.53;;;-9.96
72405;BMP280;60395;52.020;113.548;2024-02-15T07:57:34;91835.63;;;-10.06
72405;BMP280;60395;52.020;113.548;2024-02-15T08:00:38;91833.31;;;-10.14
72405;BMP280;60395;52.020;113.548;2024-02-15T08:03:44;91824.97;;;-10.16
72405;BMP280;60395;52.020;113.548;2024-02-15T08:06:48;91827.03;;;-10.13
72405;BMP280;60395;52.020;113.548;2024-02-15T08:09:52;91808.59;;;-10.13
72405;BMP280;60395;52.020;113.548;2024-02-15T08:12:57;91813.19;;;-10.10
72405;BMP280;60395;52.020;113.548;2024-02-15T08:16:07;91806.47;;;-10.05
72405;BMP280;60395;52.020;113.548;2024-02-15T08:19:13;91808.09;;;-9.98
72405;BMP280;60395;52.020;113.548;2024-02-15T08:22:17;91802.34;;;-9.99
72405;BMP280;60395;52.020;113.548;2024-02-15T08:25:26;91792.25;;;-10.10
72405;BMP280;60395;52.020;113.548;2024-02-15T08:28:30;91776.41;;;-10.22
72405;BMP280;60395;52.020;113.548;2024-02-15T08:31:33;91775.91;;;-10.32
72405;BMP280;60395;52.020;113.548;2024-02-15T08:34:39;91769.59;;;-10.31
72405;BMP280;60395;52.020;113.548;2024-02-15T08:37:44;91754.63;;;-10.39
72405;BMP280;60395;52.020;113.548;2024-02-15T08:40:51;91746.59;;;-10.47
72405;BMP280;60395;52.020;113.548;2024-02-15T08:43:55;91744.88;;;-10.56
72405;BMP280;60395;52.020;113.548;2024-02-15T08:47:05;91743.44;;;-10.59
72405;BMP280;60395;52.020;113.548;2024-02-15T08:50:10;91725.94;;;-10.67
72405;BMP280;60395;52.020;113.548;2024-02-15T08:53:15;91719.34;;;-10.72
72405;BMP280;60395;52.020;113.548;2024-02-15T08:56:27;91728.03;;;-10.75
72405;BMP280;60395;52.020;113.548;2024-02-15T08:59:30;91722.88;;;-10.77
72405;BMP280;60395;52.020;113.548;2024-02-15T09:02:36;91721.47;;;-10.80
72405;BMP280;60395;52.020;113.548;2024-02-15T09:05:40;91709.66;;;-10.87
72405;BMP280;60395;52.020;113.548;2024-02-15T09:08:44;91709.78;;;-10.85
72405;BMP280;60395;52.020;113.548;2024-02-15T09:11:50;91710.56;;;-10.83
72405;BMP280;60395;52.020;113.548;2024-02-15T09:14:54;91698.44;;;-10.84
72405;BMP280;60395;52.020;113.548;2024-02-15T09:17:59;91692.50;;;-10.89
72405;BMP280;60395;52.020;113.548;2024-02-15T09:21:03;91691.41;;;-10.97
72405;BMP280;60395;52.020;113.548;2024-02-15T09:24:08;91680.41;;;-11.02
72405;BMP280;60395;52.020;113.548;2024-02-15T09:27:14;91681.06;;;-11.01
72405;BMP280;60395;52.020;113.548;2024-02-15T09:30:18;91687.44;;;-11.00
72405;BMP280;60395;52.020;113.548;2024-02-15T09:33:22;91681.53;;;-11.05
72405;BMP280;60395;52.020;113.548;2024-02-15T09:36:27;91679.41;;;-11.09
72405;BMP280;60395;52.020;113.548;2024-02-15T09:39:31;91671.91;;;-11.07
72405;BMP280;60395;52.020;113.548;2024-02-15T09:42:35;91669.75;;;-11.12
72405;BMP280;60395;52.020;113.548;2024-02-15T09:45:39;91665.13;;;-11.16
72405;BMP280;60395;52.020;113.548;2024-02-15T09:48:49;91657.53;;;-11.16
72405;BMP280;60395;52.020;113.548;2024-02-15T09:51:54;91652.91;;;-11.19
72405;BMP280;60395;52.020;113.548;2024-02-15T09:54:59;91653.34;;;-11.23
72405;BMP280;60395;52.020;113.548;2024-02-15T09:58:05;91650.16;;;-11.23
72405;BMP280;60395;52.020;113.548;2024-02-15T10:01:10;91637.94;;;-11.27
72405;BMP280;60395;52.020;113.548;2024-02-15T10:04:15;91639.59;;;-11.31
72405;BMP280;60395;52.020;113.548;2024-02-15T10:07:19;91636.19;;;-11.36
72405;BMP280;60395;52.020;113.548;2024-02-15T10:10:25;91635.44;;;-11.39
72405;BMP280;60395;52.020;113.548;2024-02-15T10:13:38;91634.00;;;-11.42
72405;BMP280;60395;52.020;113.548;2024-02-15T10:16:42;91623.47;;;-11.50
72405;BMP280;60395;52.020;113.548;2024-02-15T10:20:02;91628.41;;;-11.52
72405;BMP280;60395;52.020;113.548;2024-02-15T10:23:13;91630.94;;;-11.52
72405;BMP280;60395;52.020;113.548;2024-02-15T10:26:21;91629.06;;;-11.63
72405;BMP280;60395;52.020;113.548;2024-02-15T10:29:26;91623.25;;;-11.65
72405;BMP280;60395;52.020;113.548;2024-02-15T10:32:36;91631.72;;;-11.61
72405;BMP280;60395;52.020;113.548;2024-02-15T10:35:40;91625.78;;;-11.65
72405;BMP280;60395;52.020;113.548;2024-02-15T10:38:46;91623.25;;;-11.65
72405;BMP280;60395;52.020;113.548;2024-02-15T10:41:52;91631.41;;;-11.67
72405;BMP280;60395;52.020;113.548;2024-02-15T10:45:03;91622.28;;;-11.72
72405;BMP280;60395;52.020;113.548;2024-02-15T10:48:17;91630.09;;;-11.80
72405;BMP280;60395;52.020;113.548;2024-02-15T10:51:21;91628.75;;;-11.81
72405;BMP280;60395;52.020;113.548;2024-02-15T10:57:51;91624.94;;;-11.82
72405;BMP280;60395;52.020;113.548;2024-02-15T11:00:56;91620.84;;;-11.87
72405;BMP280;60395;52.020;113.548;2024-02-15T11:04:01;91620.75;;;-11.89
72405;BMP280;60395;52.020;113.548;2024-02-15T11:07:08;91615.34;;;-11.95
72405;BMP280;60395;52.020;113.548;2024-02-15T11:10:14;91626.47;;;-12.00
72405;BMP280;60395;52.020;113.548;2024-02-15T11:13:20;91624.25;;;-12.05
72405;BMP280;60395;52.020;113.548;2024-02-15T11:16:42;91615.34;;;-12.07
72405;BMP280;60395;52.020;113.548;2024-02-15T11:19:49;91613.78;;;-12.12
72405;BMP280;60395;52.020;113.548;2024-02-15T11:22:59;91603.56;;;-12.14
72405;BMP280;60395;52.020;113.548;2024-02-15T11:26:04;91595.31;;;-12.14
72405;BMP280;60395;52.020;113.548;2024-02-15T11:29:07;91602.91;;;-12.14
72405;BMP280;60395;52.020;113.548;2024-02-15T11:32:51;91600.94;;;-12.16
72405;BMP280;60395;52.020;113.548;2024-02-15T11:39:40;91598.50;;;-12.14
72405;BMP280;60395;52.020;113.548;2024-02-15T11:42:47;91588.84;;;-12.17
72405;BMP280;60395;52.020;113.548;2024-02-15T11:45:58;91586.50;;;-12.25
72405;BMP280;60395;52.020;113.548;2024-02-15T11:49:02;91574.19;;;-12.30
72405;BMP280;60395;52.020;113.548;2024-02-15T11:52:10;91583.44;;;-12.35
72405;BMP280;60395;52.020;113.548;2024-02-15T11:55:18;91576.81;;;-12.40
72405;BMP280;60395;52.020;113.548;2024-02-15T11:58:22;91577.47;;;-12.39
72405;BMP280;60395;52.020;113.548;2024-02-15T12:01:34;91585.06;;;-12.39
72405;BMP280;60395;52.020;113.548;2024-02-15T12:04:57;91577.28;;;-12.44
72405;BMP280;60395;52.020;113.548;2024-02-15T12:08:19;91577.69;;;-12.47
72405;BMP280;60395;52.020;113.548;2024-02-15T12:11:41;91577.25;;;-12.55
72405;BMP280;60395;52.020;113.548;2024-02-15T12:15:03;91569.31;;;-12.61
72405;BMP280;60395;52.020;113.548;2024-02-15T12:18:25;91558.19;;;-12.80
72405;BMP280;60395;52.020;113.548;2024-02-15T12:21:48;91569.22;;;-12.96
72405;BMP280;60395;52.020;113.548;2024-02-15T12:24:54;91567.31;;;-13.07
72405;BMP280;60395;52.020;113.548;2024-02-15T12:27:59;91556.66;;;-13.18
72405;BMP280;60395;52.020;113.548;2024-02-15T12:31:08;91548.63;;;-13.26
72405;BMP280;60395;52.020;113.548;2024-02-15T12:34:12;91542.00;;;-13.31
72405;BMP280;60395;52.020;113.548;2024-02-15T12:37:18;91530.91;;;-13.37
72405;BMP280;60395;52.020;113.548;2024-02-15T12:40:33;91528.78;;;-13.41
72405;BMP280;60395;52.020;113.548;2024-02-15T12:43:37;91529.63;;;-13.48
72405;BMP280;60395;52.020;113.548;2024-02-15T12:46:40;91526.75;;;-13.54
72405;BMP280;60395;52.020;113.548;2024-02-15T12:49:50;91521.81;;;-13.52
72405;BMP280;60395;52.020;113.548;2024-02-15T12:52:55;91518.81;;;-13.60
72405;BMP280;60395;52.020;113.548;2024-02-15T12:55:58;91505.31;;;-13.65
72405;BMP280;60395;52.020;113.548;2024-02-15T12:59:03;91497.50;;;-13.69
72405;BMP280;60395;52.020;113.548;2024-02-15T13:02:07;91504.16;;;-13.73
72405;BMP280;60395;52.020;113.548;2024-02-15T13:05:10;91507.13;;;-13.77
72405;BMP280;60395;52.020;113.548;2024-02-15T13:11:38;91500.16;;;-13.88
72405;BMP280;60395;52.020;113.548;2024-02-15T13:14:41;91489.56;;;-13.96
72405;BMP280;60395;52.020;113.548;2024-02-15T13:17:45;91486.69;;;-14.02
72405;BMP280;60395;52.020;113.548;2024-02-15T13:20:49;91483.91;;;-14.06
72405;BMP280;60395;52.020;113.548;2024-02-15T13:23:56;91476.91;;;-14.08
72405;BMP280;60395;52.020;113.548;2024-02-15T13:27:00;91471.72;;;-14.10
72405;BMP280;60395;52.020;113.548;2024-02-15T13:30:05;91482.00;;;-14.18
72405;BMP280;60395;52.020;113.548;2024-02-15T13:33:12;91471.53;;;-14.24
72405;BMP280;60395;52.020;113.548;2024-02-15T13:36:20;91453.41;;;-14.32
72405;BMP280;60395;52.020;113.548;2024-02-15T13:39:23;91455.13;;;-14.34
72405;BMP280;60395;52.020;113.548;2024-02-15T13:42:27;91452.91;;;-14.40
72405;BMP280;60395;52.020;113.548;2024-02-15T13:45:43;91436.56;;;-14.39
72405;BMP280;60395;52.020;113.548;2024-02-15T13:48:47;91430.78;;;-14.41
72405;BMP280;60395;52.020;113.548;2024-02-15T13:51:51;91429.63;;;-14.50
72405;BMP280;60395;52.020;113.548;2024-02-15T13:54:55;91432.13;;;-14.50
72405;BMP280;60395;52.020;113.548;2024-02-15T13:57:59;91433.88;;;-14.53
72405;BMP280;60395;52.020;113.548;2024-02-15T14:01:03;91420.63;;;-14.63
72405;BMP280;60395;52.020;113.548;2024-02-15T14:04:07;91416.03;;;-14.66
72405;BMP280;60395;52.020;113.548;2024-02-15T14:07:12;91409.84;;;-14.75
72405;BMP280;60395;52.020;113.548;2024-02-15T14:10:16;91414.25;;;-14.85
72405;BMP280;60395;52.020;113.548;2024-02-15T14:13:23;91396.28;;;-14.91
72405;BMP280;60395;52.020;113.548;2024-02-15T14:16:28;91383.13;;;-14.90
72405;BMP280;60395;52.020;113.548;2024-02-15T14:19:36;91388.19;;;-14.99
72405;BMP280;60395;52.020;113.548;2024-02-15T14:22:40;91376.78;;;-15.00
72405;BMP280;60395;52.020;113.548;2024-02-15T14:25:44;91370.59;;;-15.09
72405;BMP280;60395;52.020;113.548;2024-02-15T14:28:48;91375.94;;;-15.15
72405;BMP280;60395;52.020;113.548;2024-02-15T14:31:53;91380.72;;;-15.19
72405;BMP280;60395;52.020;113.548;2024-02-15T14:35:15;91386.03;;;-15.24
72405;BMP280;60395;52.020;113.548;2024-02-15T14:38:19;91396.47;;;-15.28
72405;BMP280;60395;52.020;113.548;2024-02-15T14:41:23;91393.59;;;-15.34
72405;BMP280;60395;52.020;113.548;2024-02-15T14:44:34;91390.53;;;-15.32
72405;BMP280;60395;52.020;113.548;2024-02-15T14:47:39;91384.06;;;-15.35
72405;BMP280;60395;52.020;113.548;2024-02-15T14:50:45;91383.91;;;-15.37
72405;BMP280;60395;52.020;113.548;2024-02-15T14:53:49;91376.13;;;-15.42
72405;BMP280;60395;52.020;113.548;2024-02-15T14:56:52;91371.50;;;-15.45
72405;BMP280;60395;52.020;113.548;2024-02-15T14:59:57;91364.88;;;-15.50
72405;BMP280;60395;52.020;113.548;2024-02-15T15:03:01;91351.38;;;-15.55
72405;BMP280;60395;52.020;113.548;2024-02-15T15:06:07;91349.16;;;-15.60
72405;BMP280;60395;52.020;113.548;2024-02-15T15:09:30;91353.69;;;-15.68
72405;BMP280;60395;52.020;113.548;2024-02-15T15:12:51;91362.53;;;-15.77
72405;BMP280;60395;52.020;113.548;2024-02-15T15:15:55;91366.91;;;-15.78
72405;BMP280;60395;52.020;113.548;2024-02-15T15:18:58;91365.47;;;-15.81
72405;BMP280;60395;52.020;113.548;2024-02-15T15:22:02;91360.72;;;-15.86
72405;BMP280;60395;52.020;113.548;2024-02-15T15:25:08;91341.91;;;-15.95
72405;BMP280;60395;52.020;113.548;2024-02-15T15:28:12;91335.81;;;-16.01
72405;BMP280;60395;52.020;113.548;2024-02-15T15:31:17;91332.13;;;-16.10
72405;BMP280;60395;52.020;113.548;2024-02-15T15:34:23;91319.06;;;-16.18
72405;BMP280;60395;52.020;113.548;2024-02-15T15:37:26;91315.06;;;-16.21
72405;BMP280;60395;52.020;113.548;2024-02-15T15:40:30;91311.50;;;-16.28
72405;BMP280;60395;52.020;113.548;2024-02-15T15:43:35;91317.19;;;-16.37
72405;BMP280;60395;52.020;113.548;2024-02-15T15:46:38;91312.97;;;-16.44
72405;BMP280;60395;52.020;113.548;2024-02-15T15:49:42;91308.47;;;-16.46
72405;BMP280;60395;52.020;113.548;2024-02-15T15:52:46;91303.16;;;-16.50
72405;BMP280;60395;52.020;113.548;2024-02-15T15:55:52;91311.47;;;-16.57
72405;BMP280;60395;52.020;113.548;2024-02-15T15:58:55;91306.59;;;-16.64
72405;BMP280;60395;52.020;113.548;2024-02-15T16:02:00;91302.34;;;-16.72
72405;BMP280;60395;52.020;113.548;2024-02-15T16:05:04;91292.03;;;-16.76
72405;BMP280;60395;52.020;113.548;2024-02-15T16:08:09;91286.75;;;-16.80
72405;BMP280;60395;52.020;113.548;2024-02-15T19:20:26;91057.25;;;-18.02
72405;BMP280;60395;52.020;113.548;2024-02-15T19:23:35;91045.63;;;-18.07
72405;BMP280;60395;52.020;113.548;2024-02-15T19:26:38;91048.00;;;-18.09
72405;BMP280;60395;52.020;113.548;2024-02-15T19:29:47;91037.16;;;-18.12
72405;BMP280;60395;52.020;113.548;2024-02-15T19:32:50;91017.53;;;-18.15
72405;BMP280;60395;52.020;113.548;2024-02-15T19:35:54;91017.94;;;-18.19
72405;BMP280;60395;52.020;113.548;2024-02-15T19:38:58;91023.56;;;-18.28
72405;BMP280;60395;52.020;113.548;2024-02-15T19:42:02;91021.06;;;-18.28
72405;BMP280;60395;52.020;113.548;2024-02-15T19:45:08;91026.59;;;-18.30
72405;BMP280;60395;52.020;113.548;2024-02-15T19:48:12;91012.09;;;-18.31
72405;BMP280;60395;52.020;113.548;2024-02-15T19:51:16;91022.91;;;-18.28
72405;BMP280;60395;52.020;113.548;2024-02-15T19:54:22;91017.63;;;-18.33
72405;BMP280;60395;52.020;113.548;2024-02-15T19:57:27;91012.34;;;-18.37
72405;BMP280;60395;52.020;113.548;2024-02-15T20:00:31;90981.22;;;-18.43
72405;BMP280;60395;52.020;113.548;2024-02-15T20:03:34;90982.94;;;-18.46
72405;BMP280;60395;52.020;113.548;2024-02-15T20:06:43;90976.44;;;-18.49
72405;BMP280;60395;52.020;113.548;2024-02-15T20:09:47;90977.34;;;-18.54
72405;BMP280;60395;52.020;113.548;2024-02-15T20:12:51;90966.19;;;-18.53
72405;BMP280;60395;52.020;113.548;2024-02-15T20:15:54;90955.91;;;-18.57
72405;BMP280;60395;52.020;113.548;2024-02-15T20:19:00;90946.25;;;-18.61
72405;BMP280;60395;52.020;113.548;2024-02-15T20:22:08;90931.13;;;-18.63
72405;BMP280;60395;52.020;113.548;2024-02-15T20:25:12;90942.97;;;-18.63
72405;BMP280;60395;52.020;113.548;2024-02-15T20:28:16;90939.41;;;-18.60